sensor_id;sensor_type;location;lat;lon;timestamp;P1;durP1;ratioP1;P2;durP2;ratioP2
25938;SDS011;13739;51.172;4.466;2023-03-25T00:01:28;5.18;;;1.27;;
25938;SDS011;13739;51.172;4.466;2023-03-25T00:03:56;11.18;;;1.55;;
25938;SDS011;13739;51.172;4.466;2023-03-25T00:06:28;7.22;;;1.52;;
25938;SDS011;13739;51.172;4.466;2023-03-25T00:08:54;2.88;;;1.50;;
25938;SDS011;13739;51.172;4.466;2023-03-25T00:11:21;8.80;;;1.40;;
25938;SDS011;13739;51.172;4.466;2023-03-25T00:13:47;4.50;;;1.45;;
25938;SDS011;13739;51.172;4.466;2023-03-25T00:16:13;5.03;;;1.42;;
25938;SDS011;13739;51.172;4.466;2023-03-25T00:18:40;3.25;;;1.17;;
25938;SDS011;13739;51.172;4.466;2023-03-25T00:21:06;5.40;;;1.30;;
25938;SDS011;13739;51.172;4.466;2023-03-25T00:23:36;3.42;;;1.40;;
25938;SDS011;13739;51.172;4.466;2023-03-25T00:26:02;8.70;;;1.30;;
25938;SDS011;13739;51.172;4.466;2023-03-25T00:28:29;6.80;;;1.52;;
25938;SDS011;13739;51.172;4.466;2023-03-25T00:31:00;2.38;;;1.08;;
25938;SDS011;13739;51.172;4.466;2023-03-25T00:33:30;3.05;;;1.10;;
25938;SDS011;13739;51.172;4.466;2023-03-25T00:35:57;4.55;;;1.00;;
25938;SDS011;13739;51.172;4.466;2023-03-25T00:38:30;4.32;;;1.35;;
25938;SDS011;13739;51.172;4.466;2023-03-25T00:41:11;4.05;;;1.30;;
25938;SDS011;13739;51.172;4.466;2023-03-25T00:43:41;6.43;;;1.30;;
25938;SDS011;13739;51.172;4.466;2023-03-25T00:46:08;1.98;;;1.10;;
25938;SDS011;13739;51.172;4.466;2023-03-25T00:48:34;3.40;;;1.55;;
25938;SDS011;13739;51.172;4.466;2023-03-25T00:51:00;7.45;;;1.60;;
25938;SDS011;13739;51.172;4.466;2023-03-25T00:53:34;5.70;;;1.48;;
25938;SDS011;13739;51.172;4.466;2023-03-25T00:56:00;5.22;;;1.60;;
25938;SDS011;13739;51.172;4.466;2023-03-25T00:58:27;5.85;;;1.65;;
25938;SDS011;13739;51.172;4.466;2023-03-25T01:00:53;4.43;;;1.73;;
25938;SDS011;13739;51.172;4.466;2023-03-25T01:03:21;5.75;;;1.73;;
25938;SDS011;13739;51.172;4.466;2023-03-25T01:05:48;2.85;;;1.30;;
25938;SDS011;13739;51.172;4.466;2023-03-25T01:08:14;7.75;;;1.50;;
25938;SDS011;13739;51.172;4.466;2023-03-25T01:10:41;5.05;;;1.60;;
25938;SDS011;13739;51.172;4.466;2023-03-25T01:13:08;6.03;;;1.45;;
25938;SDS011;13739;51.172;4.466;2023-03-25T01:15:34;4.47;;;1.80;;
25938;SDS011;13739;51.172;4.466;2023-03-25T01:17:59;3.40;;;1.65;;
25938;SDS011;13739;51.172;4.466;2023-03-25T01:20:25;6.75;;;1.70;;
25938;SDS011;13739;51.172;4.466;2023-03-25T01:22:51;4.32;;;1.58;;
25938;SDS011;13739;51.172;4.466;2023-03-25T01:25:17;6.05;;;1.30;;
25938;SDS011;13739;51.172;4.466;2023-03-25T01:27:42;7.32;;;1.42;;
25938;SDS011;13739;51.172;4.466;2023-03-25T01:30:08;3.45;;;1.35;;
25938;SDS011;13739;51.172;4.466;2023-03-25T01:32:35;4.93;;;1.60;;
25938;SDS011;13739;51.172;4.466;2023-03-25T01:35:00;8.95;;;1.40;;
25938;SDS011;13739;51.172;4.466;2023-03-25T01:37:28;6.82;;;1.40;;
25938;SDS011;13739;51.172;4.466;2023-03-25T01:39:58;7.72;;;1.65;;
25938;SDS011;13739;51.172;4.466;2023-03-25T01:42:23;7.50;;;2.10;;
25938;SDS011;13739;51.172;4.466;2023-03-25T01:47:15;8.60;;;1.20;;
25938;SDS011;13739;51.172;4.466;2023-03-25T01:49:41;6.82;;;1.92;;
25938;SDS011;13739;51.172;4.466;2023-03-25T01:52:13;5.22;;;1.40;;
25938;SDS011;13739;51.172;4.466;2023-03-25T01:54:43;7.13;;;1.50;;
25938;SDS011;13739;51.172;4.466;2023-03-25T01:57:09;9.55;;;1.65;;
25938;SDS011;13739;51.172;4.466;2023-03-25T01:59:38;6.18;;;1.70;;
25938;SDS011;13739;51.172;4.466;2023-03-25T02:02:05;7.63;;;2.20;;
25938;SDS011;13739;51.172;4.466;2023-03-25T02:04:42;7.75;;;2.05;;
25938;SDS011;13739;51.172;4.466;2023-03-25T02:07:09;12.45;;;1.98;;
25938;SDS011;13739;51.172;4.466;2023-03-25T02:09:36;8.60;;;1.75;;
25938;SDS011;13739;51.172;4.466;2023-03-25T02:12:02;8.48;;;1.67;;
25938;SDS011;13739;51.172;4.466;2023-03-25T02:14:29;7.43;;;1.92;;
25938;SDS011;13739;51.172;4.466;2023-03-25T02:17:11;11.32;;;2.10;;
25938;SDS011;13739;51.172;4.466;2023-03-25T02:19:57;7.22;;;2.47;;
25938;SDS011;13739;51.172;4.466;2023-03-25T02:31:08;7.78;;;1.90;;
25938;SDS011;13739;51.172;4.466;2023-03-25T02:37:06;7.32;;;1.58;;
25938;SDS011;13739;51.172;4.466;2023-03-25T02:39:40;4.00;;;1.95;;
25938;SDS011;13739;51.172;4.466;2023-03-25T02:42:19;6.43;;;1.60;;
25938;SDS011;13739;51.172;4.466;2023-03-25T02:45:07;10.73;;;1.60;;
25938;SDS011;13739;51.172;4.466;2023-03-25T02:47:41;12.43;;;1.67;;
25938;SDS011;13739;51.172;4.466;2023-03-25T02:50:13;10.73;;;2.35;;
25938;SDS011;13739;51.172;4.466;2023-03-25T02:52:44;10.10;;;1.55;;
25938;SDS011;13739;51.172;4.466;2023-03-25T02:55:13;6.57;;;1.50;;
25938;SDS011;13739;51.172;4.466;2023-03-25T02:57:43;7.53;;;1.27;;
25938;SDS011;13739;51.172;4.466;2023-03-25T03:00:12;5.90;;;1.40;;
25938;SDS011;13739;51.172;4.466;2023-03-25T03:03:00;5.32;;;2.00;;
25938;SDS011;13739;51.172;4.466;2023-03-25T03:05:28;7.22;;;1.40;;
25938;SDS011;13739;51.172;4.466;2023-03-25T03:16:12;6.50;;;1.25;;
25938;SDS011;13739;51.172;4.466;2023-03-25T03:18:56;5.05;;;1.15;;
25938;SDS011;13739;51.172;4.466;2023-03-25T03:27:09;9.63;;;1.50;;
25938;SDS011;13739;51.172;4.466;2023-03-25T03:29:48;3.65;;;1.33;;
25938;SDS011;13739;51.172;4.466;2023-03-25T03:32:20;7.68;;;1.52;;
25938;SDS011;13739;51.172;4.466;2023-03-25T03:34:53;9.95;;;1.40;;
25938;SDS011;13739;51.172;4.466;2023-03-25T03:37:31;5.97;;;1.70;;
25938;SDS011;13739;51.172;4.466;2023-03-25T03:40:03;5.15;;;1.40;;
25938;SDS011;13739;51.172;4.466;2023-03-25T03:45:57;9.35;;;1.98;;
25938;SDS011;13739;51.172;4.466;2023-03-25T03:48:04;3.88;;;1.42;;
25938;SDS011;13739;51.172;4.466;2023-03-25T03:50:38;2.70;;;1.27;;
25938;SDS011;13739;51.172;4.466;2023-03-25T03:53:14;5.40;;;1.70;;
25938;SDS011;13739;51.172;4.466;2023-03-25T03:56:05;6.13;;;1.90;;
25938;SDS011;13739;51.172;4.466;2023-03-25T03:58:38;7.50;;;2.13;;
25938;SDS011;13739;51.172;4.466;2023-03-25T04:03:36;6.05;;;1.90;;
25938;SDS011;13739;51.172;4.466;2023-03-25T04:06:18;5.70;;;1.40;;
25938;SDS011;13739;51.172;4.466;2023-03-25T04:09:01;8.60;;;1.73;;
25938;SDS011;13739;51.172;4.466;2023-03-25T04:11:53;6.75;;;1.63;;
25938;SDS011;13739;51.172;4.466;2023-03-25T04:14:23;5.75;;;1.55;;
25938;SDS011;13739;51.172;4.466;2023-03-25T04:16:49;5.07;;;1.85;;
25938;SDS011;13739;51.172;4.466;2023-03-25T04:19:17;5.97;;;1.40;;
25938;SDS011;13739;51.172;4.466;2023-03-25T04:21:43;4.38;;;1.30;;
25938;SDS011;13739;51.172;4.466;2023-03-25T04:24:11;8.45;;;1.70;;
25938;SDS011;13739;51.172;4.466;2023-03-25T04:26:40;8.55;;;1.70;;
25938;SDS011;13739;51.172;4.466;2023-03-25T04:29:07;5.82;;;1.40;;
25938;SDS011;13739;51.172;4.466;2023-03-25T04:31:34;6.30;;;1.45;;
25938;SDS011;13739;51.172;4.466;2023-03-25T04:34:01;5.20;;;1.45;;
25938;SDS011;13739;51.172;4.466;2023-03-25T04:36:28;5.60;;;1.50;;
25938;SDS011;13739;51.172;4.466;2023-03-25T04:38:57;4.95;;;1.52;;
25938;SDS011;13739;51.172;4.466;2023-03-25T04:41:23;7.93;;;1.55;;
25938;SDS011;13739;51.172;4.466;2023-03-25T04:43:49;11.55;;;2.17;;
25938;SDS011;13739;51.172;4.466;2023-03-25T04:46:15;10.93;;;1.50;;
25938;SDS011;13739;51.172;4.466;2023-03-25T04:48:42;6.70;;;2.30;;
25938;SDS011;13739;51.172;4.466;2023-03-25T04:51:12;13.40;;;1.50;;
25938;SDS011;13739;51.172;4.466;2023-03-25T04:53:39;5.47;;;1.42;;
25938;SDS011;13739;51.172;4.466;2023-03-25T04:56:06;12.60;;;2.25;;
25938;SDS011;13739;51.172;4.466;2023-03-25T04:58:41;8.13;;;1.25;;
25938;SDS011;13739;51.172;4.466;2023-03-25T05:01:20;8.65;;;1.20;;
25938;SDS011;13739;51.172;4.466;2023-03-25T05:03:55;8.23;;;1.45;;
25938;SDS011;13739;51.172;4.466;2023-03-25T05:08:57;4.25;;;0.95;;
25938;SDS011;13739;51.172;4.466;2023-03-25T05:11:26;8.20;;;1.30;;
25938;SDS011;13739;51.172;4.466;2023-03-25T05:13:52;7.38;;;1.17;;
25938;SDS011;13739;51.172;4.466;2023-03-25T05:16:19;9.18;;;1.33;;
25938;SDS011;13739;51.172;4.466;2023-03-25T05:18:44;10.23;;;1.27;;
25938;SDS011;13739;51.172;4.466;2023-03-25T05:21:10;7.22;;;1.42;;
25938;SDS011;13739;51.172;4.466;2023-03-25T05:23:36;9.30;;;1.75;;
25938;SDS011;13739;51.172;4.466;2023-03-25T05:26:02;9.48;;;1.20;;
25938;SDS011;13739;51.172;4.466;2023-03-25T05:28:28;5.18;;;1.50;;
25938;SDS011;13739;51.172;4.466;2023-03-25T05:30:54;6.32;;;1.77;;
25938;SDS011;13739;51.172;4.466;2023-03-25T05:33:20;7.78;;;1.67;;
25938;SDS011;13739;51.172;4.466;2023-03-25T05:35:46;8.05;;;1.75;;
25938;SDS011;13739;51.172;4.466;2023-03-25T05:38:12;11.27;;;2.00;;
25938;SDS011;13739;51.172;4.466;2023-03-25T05:40:43;9.35;;;2.55;;
25938;SDS011;13739;51.172;4.466;2023-03-25T05:43:10;14.00;;;2.78;;
25938;SDS011;13739;51.172;4.466;2023-03-25T05:45:38;9.05;;;2.38;;
25938;SDS011;13739;51.172;4.466;2023-03-25T05:48:05;7.78;;;2.00;;
25938;SDS011;13739;51.172;4.466;2023-03-25T05:50:32;14.07;;;2.38;;
25938;SDS011;13739;51.172;4.466;2023-03-25T05:52:58;9.73;;;1.60;;
25938;SDS011;13739;51.172;4.466;2023-03-25T05:55:24;8.43;;;1.75;;
25938;SDS011;13739;51.172;4.466;2023-03-25T05:57:51;9.15;;;1.67;;
25938;SDS011;13739;51.172;4.466;2023-03-25T06:00:17;4.65;;;1.60;;
25938;SDS011;13739;51.172;4.466;2023-03-25T06:02:43;9.55;;;1.63;;
25938;SDS011;13739;51.172;4.466;2023-03-25T06:05:10;13.20;;;2.05;;
25938;SDS011;13739;51.172;4.466;2023-03-25T06:07:38;5.05;;;1.25;;
25938;SDS011;13739;51.172;4.466;2023-03-25T06:10:07;9.98;;;2.22;;
25938;SDS011;13739;51.172;4.466;2023-03-25T06:12:34;10.77;;;1.60;;
25938;SDS011;13739;51.172;4.466;2023-03-25T06:15:12;13.23;;;1.75;;
25938;SDS011;13739;51.172;4.466;2023-03-25T06:17:41;12.07;;;2.05;;
25938;SDS011;13739;51.172;4.466;2023-03-25T06:20:10;4.45;;;1.40;;
25938;SDS011;13739;51.172;4.466;2023-03-25T06:22:44;9.50;;;1.40;;
25938;SDS011;13739;51.172;4.466;2023-03-25T06:25:10;20.63;;;1.55;;
25938;SDS011;13739;51.172;4.466;2023-03-25T06:27:38;13.20;;;2.00;;
25938;SDS011;13739;51.172;4.466;2023-03-25T06:30:12;7.70;;;1.10;;
25938;SDS011;13739;51.172;4.466;2023-03-25T06:32:41;12.05;;;1.92;;
25938;SDS011;13739;51.172;4.466;2023-03-25T06:35:08;29.20;;;1.95;;
25938;SDS011;13739;51.172;4.466;2023-03-25T06:37:35;16.88;;;2.22;;
25938;SDS011;13739;51.172;4.466;2023-03-25T06:40:02;4.32;;;1.20;;
25938;SDS011;13739;51.172;4.466;2023-03-25T06:42:30;17.65;;;1.40;;
25938;SDS011;13739;51.172;4.466;2023-03-25T06:44:56;13.23;;;1.70;;
25938;SDS011;13739;51.172;4.466;2023-03-25T06:47:22;16.48;;;2.38;;
25938;SDS011;13739;51.172;4.466;2023-03-25T06:49:48;13.68;;;2.03;;
25938;SDS011;13739;51.172;4.466;2023-03-25T06:52:14;8.70;;;1.35;;
25938;SDS011;13739;51.172;4.466;2023-03-25T06:54:40;8.88;;;1.23;;
25938;SDS011;13739;51.172;4.466;2023-03-25T06:57:06;13.43;;;1.77;;
25938;SDS011;13739;51.172;4.466;2023-03-25T06:59:32;13.07;;;2.08;;
25938;SDS011;13739;51.172;4.466;2023-03-25T07:01:58;17.52;;;1.95;;
25938;SDS011;13739;51.172;4.466;2023-03-25T07:04:23;9.73;;;1.50;;
25938;SDS011;13739;51.172;4.466;2023-03-25T07:06:49;9.85;;;1.30;;
25938;SDS011;13739;51.172;4.466;2023-03-25T07:09:15;8.93;;;2.17;;
25938;SDS011;13739;51.172;4.466;2023-03-25T07:11:41;8.70;;;1.70;;
25938;SDS011;13739;51.172;4.466;2023-03-25T07:14:07;16.40;;;2.13;;
25938;SDS011;13739;51.172;4.466;2023-03-25T07:16:33;12.52;;;1.80;;
25938;SDS011;13739;51.172;4.466;2023-03-25T07:18:58;14.57;;;1.95;;
25938;SDS011;13739;51.172;4.466;2023-03-25T07:21:25;14.15;;;1.85;;
25938;SDS011;13739;51.172;4.466;2023-03-25T07:23:51;15.13;;;2.42;;
25938;SDS011;13739;51.172;4.466;2023-03-25T07:26:17;23.98;;;2.55;;
25938;SDS011;13739;51.172;4.466;2023-03-25T07:28:43;14.80;;;2.05;;
25938;SDS011;13739;51.172;4.466;2023-03-25T07:31:10;12.65;;;1.50;;
25938;SDS011;13739;51.172;4.466;2023-03-25T07:33:37;9.10;;;1.83;;
25938;SDS011;13739;51.172;4.466;2023-03-25T07:36:04;16.65;;;1.85;;
25938;SDS011;13739;51.172;4.466;2023-03-25T07:38:30;19.02;;;2.67;;
25938;SDS011;13739;51.172;4.466;2023-03-25T07:40:56;13.07;;;1.83;;
25938;SDS011;13739;51.172;4.466;2023-03-25T07:43:22;14.13;;;2.00;;
25938;SDS011;13739;51.172;4.466;2023-03-25T07:45:47;15.40;;;2.15;;
25938;SDS011;13739;51.172;4.466;2023-03-25T07:48:14;12.45;;;2.05;;
25938;SDS011;13739;51.172;4.466;2023-03-25T07:50:41;20.77;;;2.88;;
25938;SDS011;13739;51.172;4.466;2023-03-25T07:53:07;16.70;;;2.70;;
25938;SDS011;13739;51.172;4.466;2023-03-25T07:55:33;15.50;;;1.88;;
25938;SDS011;13739;51.172;4.466;2023-03-25T07:57:59;13.48;;;2.20;;
25938;SDS011;13739;51.172;4.466;2023-03-25T08:00:27;12.82;;;1.95;;
25938;SDS011;13739;51.172;4.466;2023-03-25T08:02:53;13.07;;;2.55;;
25938;SDS011;13739;51.172;4.466;2023-03-25T08:05:20;15.85;;;2.25;;
25938;SDS011;13739;51.172;4.466;2023-03-25T08:07:54;16.48;;;2.20;;
25938;SDS011;13739;51.172;4.466;2023-03-25T08:10:24;22.98;;;3.58;;
25938;SDS011;13739;51.172;4.466;2023-03-25T08:12:50;18.60;;;2.25;;
25938;SDS011;13739;51.172;4.466;2023-03-25T08:15:20;19.60;;;2.78;;
25938;SDS011;13739;51.172;4.466;2023-03-25T08:17:48;20.67;;;3.70;;
25938;SDS011;13739;51.172;4.466;2023-03-25T08:20:18;18.95;;;2.72;;
25938;SDS011;13739;51.172;4.466;2023-03-25T08:22:44;17.92;;;2.83;;
25938;SDS011;13739;51.172;4.466;2023-03-25T08:25:09;20.00;;;2.35;;
25938;SDS011;13739;51.172;4.466;2023-03-25T08:27:35;22.13;;;2.45;;
25938;SDS011;13739;51.172;4.466;2023-03-25T08:30:01;16.52;;;2.10;;
25938;SDS011;13739;51.172;4.466;2023-03-25T08:32:29;11.98;;;1.80;;
25938;SDS011;13739;51.172;4.466;2023-03-25T08:34:55;12.80;;;2.00;;
25938;SDS011;13739;51.172;4.466;2023-03-25T08:37:21;13.73;;;2.10;;
25938;SDS011;13739;51.172;4.466;2023-03-25T08:39:49;17.50;;;2.38;;
25938;SDS011;13739;51.172;4.466;2023-03-25T08:42:15;17.45;;;2.08;;
25938;SDS011;13739;51.172;4.466;2023-03-25T08:44:42;14.68;;;2.65;;
25938;SDS011;13739;51.172;4.466;2023-03-25T08:47:08;20.83;;;3.00;;
25938;SDS011;13739;51.172;4.466;2023-03-25T08:49:34;21.40;;;3.08;;
25938;SDS011;13739;51.172;4.466;2023-03-25T08:52:00;16.88;;;2.13;;
25938;SDS011;13739;51.172;4.466;2023-03-25T08:54:26;15.45;;;2.50;;
25938;SDS011;13739;51.172;4.466;2023-03-25T08:56:53;19.83;;;3.22;;
25938;SDS011;13739;51.172;4.466;2023-03-25T08:59:19;19.80;;;2.63;;
25938;SDS011;13739;51.172;4.466;2023-03-25T09:01:45;16.50;;;2.05;;
25938;SDS011;13739;51.172;4.466;2023-03-25T09:04:11;18.90;;;2.30;;
25938;SDS011;13739;51.172;4.466;2023-03-25T09:06:37;18.67;;;2.97;;
25938;SDS011;13739;51.172;4.466;2023-03-25T09:09:06;28.45;;;2.22;;
25938;SDS011;13739;51.172;4.466;2023-03-25T09:11:34;14.48;;;2.15;;
25938;SDS011;13739;51.172;4.466;2023-03-25T09:14:00;22.38;;;2.72;;
25938;SDS011;13739;51.172;4.466;2023-03-25T09:16:30;22.23;;;2.90;;
25938;SDS011;13739;51.172;4.466;2023-03-25T09:18:56;18.80;;;2.60;;
25938;SDS011;13739;51.172;4.466;2023-03-25T09:21:25;19.15;;;2.75;;
25938;SDS011;13739;51.172;4.466;2023-03-25T09:23:51;13.82;;;2.92;;
25938;SDS011;13739;51.172;4.466;2023-03-25T09:26:17;19.15;;;2.33;;
25938;SDS011;13739;51.172;4.466;2023-03-25T09:28:43;10.18;;;2.10;;
25938;SDS011;13739;51.172;4.466;2023-03-25T09:31:08;13.20;;;1.95;;
25938;SDS011;13739;51.172;4.466;2023-03-25T09:33:34;17.35;;;2.83;;
25938;SDS011;13739;51.172;4.466;2023-03-25T09:36:01;22.98;;;2.70;;
25938;SDS011;13739;51.172;4.466;2023-03-25T09:38:27;17.88;;;2.80;;
25938;SDS011;13739;51.172;4.466;2023-03-25T09:40:53;20.67;;;2.20;;
25938;SDS011;13739;51.172;4.466;2023-03-25T09:43:23;14.57;;;2.30;;
25938;SDS011;13739;51.172;4.466;2023-03-25T09:45:55;22.30;;;2.35;;
25938;SDS011;13739;51.172;4.466;2023-03-25T09:48:23;19.20;;;1.98;;
25938;SDS011;13739;51.172;4.466;2023-03-25T09:51:00;15.55;;;2.13;;
25938;SDS011;13739;51.172;4.466;2023-03-25T09:56:10;13.60;;;3.10;;
25938;SDS011;13739;51.172;4.466;2023-03-25T09:58:41;14.07;;;2.33;;
25938;SDS011;13739;51.172;4.466;2023-03-25T10:07:14;11.60;;;1.88;;
25938;SDS011;13739;51.172;4.466;2023-03-25T10:10:38;11.13;;;1.98;;
25938;SDS011;13739;51.172;4.466;2023-03-25T10:12:54;12.40;;;1.88;;
25938;SDS011;13739;51.172;4.466;2023-03-25T10:21:05;13.80;;;1.98;;
25938;SDS011;13739;51.172;4.466;2023-03-25T10:26:29;13.57;;;2.45;;
25938;SDS011;13739;51.172;4.466;2023-03-25T10:29:09;11.23;;;1.83;;
25938;SDS011;13739;51.172;4.466;2023-03-25T10:31:39;18.08;;;2.22;;
25938;SDS011;13739;51.172;4.466;2023-03-25T10:34:14;20.27;;;2.15;;
25938;SDS011;13739;51.172;4.466;2023-03-25T10:36:44;21.23;;;2.47;;
25938;SDS011;13739;51.172;4.466;2023-03-25T10:39:18;9.05;;;1.77;;
25938;SDS011;13739;51.172;4.466;2023-03-25T10:41:46;7.60;;;1.80;;
25938;SDS011;13739;51.172;4.466;2023-03-25T10:44:19;11.75;;;1.65;;
25938;SDS011;13739;51.172;4.466;2023-03-25T10:46:47;12.52;;;1.67;;
25938;SDS011;13739;51.172;4.466;2023-03-25T10:49:20;10.85;;;1.67;;
25938;SDS011;13739;51.172;4.466;2023-03-25T10:51:50;12.30;;;2.13;;
25938;SDS011;13739;51.172;4.466;2023-03-25T10:54:21;12.60;;;1.52;;
25938;SDS011;13739;51.172;4.466;2023-03-25T10:56:54;9.35;;;2.08;;
25938;SDS011;13739;51.172;4.466;2023-03-25T10:59:28;15.10;;;2.15;;
25938;SDS011;13739;51.172;4.466;2023-03-25T11:02:02;15.10;;;2.10;;
25938;SDS011;13739;51.172;4.466;2023-03-25T11:05:03;10.10;;;1.27;;
25938;SDS011;13739;51.172;4.466;2023-03-25T11:07:32;6.82;;;1.38;;
25938;SDS011;13739;51.172;4.466;2023-03-25T11:10:34;6.88;;;1.20;;
25938;SDS011;13739;51.172;4.466;2023-03-25T11:12:56;5.53;;;1.52;;
25938;SDS011;13739;51.172;4.466;2023-03-25T11:15:32;10.57;;;1.40;;
25938;SDS011;13739;51.172;4.466;2023-03-25T11:18:10;10.07;;;1.50;;
25938;SDS011;13739;51.172;4.466;2023-03-25T11:20:49;12.15;;;1.30;;
25938;SDS011;13739;51.172;4.466;2023-03-25T11:23:25;12.45;;;1.85;;
25938;SDS011;13739;51.172;4.466;2023-03-25T11:25:55;16.08;;;2.08;;
25938;SDS011;13739;51.172;4.466;2023-03-25T11:29:30;11.93;;;2.57;;
25938;SDS011;13739;51.172;4.466;2023-03-25T11:31:27;11.70;;;1.88;;
25938;SDS011;13739;51.172;4.466;2023-03-25T11:36:47;12.98;;;3.05;;
25938;SDS011;13739;51.172;4.466;2023-03-25T11:41:59;16.10;;;2.67;;
25938;SDS011;13739;51.172;4.466;2023-03-25T11:44:36;19.20;;;2.80;;
25938;SDS011;13739;51.172;4.466;2023-03-25T11:47:03;11.73;;;1.65;;
25938;SDS011;13739;51.172;4.466;2023-03-25T11:49:35;19.95;;;1.92;;
25938;SDS011;13739;51.172;4.466;2023-03-25T11:52:07;12.65;;;1.67;;
25938;SDS011;13739;51.172;4.466;2023-03-25T11:54:38;6.50;;;1.58;;
25938;SDS011;13739;51.172;4.466;2023-03-25T11:57:10;12.00;;;1.75;;
25938;SDS011;13739;51.172;4.466;2023-03-25T11:59:48;9.23;;;1.55;;
25938;SDS011;13739;51.172;4.466;2023-03-25T12:02:23;13.98;;;2.17;;
25938;SDS011;13739;51.172;4.466;2023-03-25T12:05:08;13.15;;;1.80;;
25938;SDS011;13739;51.172;4.466;2023-03-25T12:07:47;14.43;;;2.13;;
25938;SDS011;13739;51.172;4.466;2023-03-25T12:18:54;14.07;;;1.83;;
25938;SDS011;13739;51.172;4.466;2023-03-25T12:21:36;16.63;;;2.92;;
25938;SDS011;13739;51.172;4.466;2023-03-25T12:24:27;13.27;;;2.15;;
25938;SDS011;13739;51.172;4.466;2023-03-25T12:32:19;12.48;;;2.00;;
25938;SDS011;13739;51.172;4.466;2023-03-25T12:35:18;16.23;;;2.10;;
25938;SDS011;13739;51.172;4.466;2023-03-25T12:54:42;21.40;;;2.55;;
25938;SDS011;13739;51.172;4.466;2023-03-25T12:59:56;16.55;;;2.60;;
25938;SDS011;13739;51.172;4.466;2023-03-25T13:05:43;13.98;;;2.13;;
25938;SDS011;13739;51.172;4.466;2023-03-25T13:11:17;12.38;;;1.98;;
25938;SDS011;13739;51.172;4.466;2023-03-25T13:13:50;13.98;;;2.50;;
25938;SDS011;13739;51.172;4.466;2023-03-25T13:16:19;9.05;;;1.95;;
25938;SDS011;13739;51.172;4.466;2023-03-25T13:19:02;10.73;;;1.80;;
25938;SDS011;13739;51.172;4.466;2023-03-25T13:21:35;13.23;;;1.90;;
25938;SDS011;13739;51.172;4.466;2023-03-25T13:24:05;7.45;;;1.48;;
25938;SDS011;13739;51.172;4.466;2023-03-25T13:26:36;13.70;;;2.10;;
25938;SDS011;13739;51.172;4.466;2023-03-25T13:29:28;18.60;;;2.63;;
25938;SDS011;13739;51.172;4.466;2023-03-25T13:31:56;10.73;;;1.42;;
25938;SDS011;13739;51.172;4.466;2023-03-25T13:34:26;19.40;;;2.13;;
25938;SDS011;13739;51.172;4.466;2023-03-25T13:37:12;16.17;;;1.67;;
25938;SDS011;13739;51.172;4.466;2023-03-25T13:45:27;7.10;;;1.83;;
25938;SDS011;13739;51.172;4.466;2023-03-25T13:48:11;13.80;;;2.00;;
25938;SDS011;13739;51.172;4.466;2023-03-25T13:50:48;9.15;;;1.65;;
25938;SDS011;13739;51.172;4.466;2023-03-25T13:53:22;14.07;;;1.65;;
25938;SDS011;13739;51.172;4.466;2023-03-25T14:14:42;11.68;;;2.08;;
25938;SDS011;13739;51.172;4.466;2023-03-25T14:17:13;17.88;;;2.42;;
25938;SDS011;13739;51.172;4.466;2023-03-25T14:19:51;13.85;;;2.47;;
25938;SDS011;13739;51.172;4.466;2023-03-25T14:22:23;13.13;;;2.05;;
25938;SDS011;13739;51.172;4.466;2023-03-25T14:25:00;10.23;;;1.55;;
25938;SDS011;13739;51.172;4.466;2023-03-25T14:27:30;13.13;;;1.70;;
25938;SDS011;13739;51.172;4.466;2023-03-25T14:32:39;14.32;;;2.05;;
25938;SDS011;13739;51.172;4.466;2023-03-25T14:38:17;9.05;;;1.65;;
25938;SDS011;13739;51.172;4.466;2023-03-25T14:40:47;14.90;;;2.13;;
25938;SDS011;13739;51.172;4.466;2023-03-25T14:51:20;10.85;;;1.70;;
25938;SDS011;13739;51.172;4.466;2023-03-25T14:53:59;6.97;;;1.60;;
25938;SDS011;13739;51.172;4.466;2023-03-25T14:56:50;7.10;;;1.40;;
25938;SDS011;13739;51.172;4.466;2023-03-25T14:59:41;8.50;;;1.52;;
25938;SDS011;13739;51.172;4.466;2023-03-25T15:04:41;9.15;;;2.03;;
25938;SDS011;13739;51.172;4.466;2023-03-25T15:07:13;9.73;;;1.50;;
25938;SDS011;13739;51.172;4.466;2023-03-25T15:09:48;19.10;;;2.08;;
25938;SDS011;13739;51.172;4.466;2023-03-25T15:12:22;11.20;;;1.67;;
25938;SDS011;13739;51.172;4.466;2023-03-25T15:14:53;11.18;;;2.20;;
25938;SDS011;13739;51.172;4.466;2023-03-25T15:20:11;18.73;;;2.25;;
25938;SDS011;13739;51.172;4.466;2023-03-25T15:22:39;18.67;;;2.05;;
25938;SDS011;13739;51.172;4.466;2023-03-25T15:25:10;15.63;;;2.00;;
25938;SDS011;13739;51.172;4.466;2023-03-25T15:44:21;11.55;;;1.50;;
25938;SDS011;13739;51.172;4.466;2023-03-25T15:56:57;14.82;;;1.73;;
25938;SDS011;13739;51.172;4.466;2023-03-25T16:02:12;18.42;;;1.83;;
25938;SDS011;13739;51.172;4.466;2023-03-25T16:04:46;11.25;;;1.98;;
25938;SDS011;13739;51.172;4.466;2023-03-25T16:07:14;7.53;;;1.60;;
25938;SDS011;13739;51.172;4.466;2023-03-25T16:09:44;13.65;;;1.65;;
25938;SDS011;13739;51.172;4.466;2023-03-25T16:12:16;12.23;;;1.85;;
25938;SDS011;13739;51.172;4.466;2023-03-25T16:14:45;9.70;;;1.85;;
25938;SDS011;13739;51.172;4.466;2023-03-25T16:17:11;20.33;;;2.10;;
25938;SDS011;13739;51.172;4.466;2023-03-25T16:19:39;13.25;;;1.80;;
25938;SDS011;13739;51.172;4.466;2023-03-25T16:22:16;13.73;;;1.77;;
25938;SDS011;13739;51.172;4.466;2023-03-25T16:24:53;13.23;;;1.83;;
25938;SDS011;13739;51.172;4.466;2023-03-25T16:27:23;13.43;;;1.60;;
25938;SDS011;13739;51.172;4.466;2023-03-25T16:29:58;12.20;;;1.55;;
25938;SDS011;13739;51.172;4.466;2023-03-25T16:32:25;16.58;;;1.70;;
25938;SDS011;13739;51.172;4.466;2023-03-25T16:34:56;10.98;;;1.92;;
25938;SDS011;13739;51.172;4.466;2023-03-25T16:37:22;13.18;;;1.75;;
25938;SDS011;13739;51.172;4.466;2023-03-25T16:39:58;10.30;;;1.40;;
25938;SDS011;13739;51.172;4.466;2023-03-25T16:42:30;19.23;;;2.10;;
25938;SDS011;13739;51.172;4.466;2023-03-25T16:44:58;12.27;;;2.42;;
25938;SDS011;13739;51.172;4.466;2023-03-25T16:47:25;18.20;;;2.78;;
25938;SDS011;13739;51.172;4.466;2023-03-25T16:49:51;12.20;;;2.03;;
25938;SDS011;13739;51.172;4.466;2023-03-25T16:52:24;11.77;;;1.83;;
25938;SDS011;13739;51.172;4.466;2023-03-25T17:00:17;12.90;;;2.85;;
25938;SDS011;13739;51.172;4.466;2023-03-25T17:02:45;16.20;;;3.53;;
25938;SDS011;13739;51.172;4.466;2023-03-25T17:07:45;16.70;;;2.60;;
25938;SDS011;13739;51.172;4.466;2023-03-25T17:12:44;16.27;;;2.83;;
25938;SDS011;13739;51.172;4.466;2023-03-25T17:15:17;20.58;;;2.55;;
25938;SDS011;13739;51.172;4.466;2023-03-25T17:17:44;11.25;;;2.10;;
25938;SDS011;13739;51.172;4.466;2023-03-25T17:20:36;14.27;;;2.55;;
25938;SDS011;13739;51.172;4.466;2023-03-25T17:23:06;11.73;;;2.20;;
25938;SDS011;13739;51.172;4.466;2023-03-25T17:33:49;12.95;;;1.80;;
25938;SDS011;13739;51.172;4.466;2023-03-25T17:36:16;16.05;;;3.13;;
25938;SDS011;13739;51.172;4.466;2023-03-25T17:38:44;22.63;;;2.92;;
25938;SDS011;13739;51.172;4.466;2023-03-25T17:41:12;15.73;;;2.75;;
25938;SDS011;13739;51.172;4.466;2023-03-25T17:43:41;17.88;;;2.00;;
25938;SDS011;13739;51.172;4.466;2023-03-25T17:46:22;13.75;;;2.35;;
25938;SDS011;13739;51.172;4.466;2023-03-25T17:48:51;17.05;;;2.80;;
25938;SDS011;13739;51.172;4.466;2023-03-25T17:51:19;15.40;;;2.90;;
25938;SDS011;13739;51.172;4.466;2023-03-25T17:53:46;23.88;;;3.08;;
25938;SDS011;13739;51.172;4.466;2023-03-25T17:56:12;16.77;;;2.72;;
25938;SDS011;13739;51.172;4.466;2023-03-25T17:58:42;27.27;;;2.88;;
25938;SDS011;13739;51.172;4.466;2023-03-25T18:01:11;20.48;;;2.20;;
25938;SDS011;13739;51.172;4.466;2023-03-25T18:03:37;19.67;;;2.85;;
25938;SDS011;13739;51.172;4.466;2023-03-25T18:06:03;19.35;;;2.65;;
25938;SDS011;13739;51.172;4.466;2023-03-25T18:08:29;18.13;;;2.67;;
25938;SDS011;13739;51.172;4.466;2023-03-25T18:10:55;23.98;;;2.92;;